Omaha — WDC9423 — position and weather

sailwx.info

Track history (hours):
 
Tides and Currents Weather Stations Pressure Air Temp Water Temp Dewpoint Dewpoint Depression Visibility Wind Speed Wind Dir Waves Ship Positions

Omaha

Owner: Turn services, Inc, New Orleans, LA. More information available from US FCC via Universal Licensing System and Coast Guard Vessel Documentation Center.

Last reported at 2014-Dec-23 03:24 UTC. Time now 2014-Dec-23 03:40 UTC.
Position N 29°55' W 089°56'.

Length 13 m; draft 3.5 m.

Type: Pilot. MMSI: 367102030.

Date/timePositionNaut miles runAvg speedWind from/ knotsBaromVisibWave heightAir tempDewpointWater temp
2014-Dec-23 03:24N 29°55' W 089°56'0 0.1
2014-Dec-23 01:33N 29°55' W 089°57'1 0.2
2014-Dec-22 21:07N 29°55' W 089°56'4 6.4
2014-Dec-22 20:28N 29°57' W 090°00'2 1.8
2014-Dec-22 19:21N 29°56' W 089°58'2 2.5
2014-Dec-22 18:32N 29°55' W 089°56'1 0.7
2014-Dec-22 17:03N 29°55' W 089°57'0 0.6
2014-Dec-22 16:31N 29°55' W 089°56'1 0.3
2014-Dec-22 14:19N 29°55' W 089°56'4 0.4
2014-Dec-22 02:30N 29°57' W 090°00'3 2.8
2014-Dec-22 01:28N 29°55' W 089°57'1 0.1
2014-Dec-21 15:24N 29°55' W 089°56'1 0.6
2014-Dec-21 14:21N 29°55' W 089°56'0 0.0
2014-Dec-21 13:12N 29°55' W 089°56'1 0.3
2014-Dec-21 11:26N 29°55' W 089°56'0 0.0
2014-Dec-21 10:32N 29°55' W 089°56'0 0.1
2014-Dec-21 09:23N 29°55' W 089°56'0 0.3
2014-Dec-21 08:32N 29°55' W 089°56'0 0.2
2014-Dec-21 07:20N 29°55' W 089°56'0 0.4
2014-Dec-21 06:32N 29°55' W 089°56'0 0.2
2014-Dec-21 05:18N 29°55' W 089°56'0 0.3
2014-Dec-21 04:26N 29°55' W 089°57'1 0.4
2014-Dec-21 02:33N 29°55' W 089°56'0 0.0
2014-Dec-21 01:10N 29°55' W 089°56'0 0.0
2014-Dec-20 23:11N 29°55' W 089°56'0 0.0
2014-Dec-20 22:32N 29°55' W 089°56'0 0.2
2014-Dec-20 21:27N 29°55' W 089°56'0 0.5
2014-Dec-20 20:31N 29°55' W 089°57'2 1.9
2014-Dec-20 19:30N 29°56' W 089°59'2 2.0
2014-Dec-20 18:33N 29°55' W 089°57'1 0.6
2014-Dec-20 17:11N 29°55' W 089°56'1 0.3
2014-Dec-20 15:29N 29°55' W 089°56'0 0.0
2014-Dec-20 14:30N 29°55' W 089°56'2 0.3
2014-Dec-20 07:27N 29°56' W 089°59'0 0.1
2014-Dec-20 06:32N 29°56' W 089°59'1 0.3
2014-Dec-20 04:27N 29°56' W 089°58'2 1.9
2014-Dec-20 03:33N 29°56' W 089°60'1 0.5
2014-Dec-20 01:21N 29°56' W 089°59'3 2.5
2014-Dec-20 00:16N 29°55' W 089°56'1 0.1
2014-Dec-19 11:10N 29°55' W 089°57'0 0.0
2014-Dec-18 10:26N 29°55' W 089°56'0 0.0
2014-Dec-17 21:29N 29°55' W 089°56'0 0.1
2014-Dec-17 15:13N 29°55' W 089°56'0 0.6
2014-Dec-17 14:29N 29°55' W 089°57'1 1.0
2014-Dec-17 13:29N 29°55' W 089°56'0 0.0
2014-Dec-17 12:33N 29°55' W 089°56'0 0.0
2014-Dec-17 01:17N 29°55' W 089°56'0 0.1
2014-Dec-16 23:05N 29°55' W 089°56'0 0.1
2014-Dec-16 20:27N 29°55' W 089°56'1 0.7
2014-Dec-16 19:07N 29°55' W 089°57'1 0.6
2014-Dec-16 17:18N 29°55' W 089°56'1 1.2
2014-Dec-16 16:28N 29°55' W 089°57'1 0.7
2014-Dec-16 15:30N 29°55' W 089°56'1 0.6
2014-Dec-16 14:33N 29°55' W 089°56'1 0.0
2014-Dec-15 23:11N 29°55' W 089°56'1 0.7
2014-Dec-15 22:28N 29°55' W 089°56'1 0.6
2014-Dec-15 20:33N 29°55' W 089°57'1 0.6
2014-Dec-15 19:22N 29°55' W 089°56'0 0.2
2014-Dec-15 18:20N 29°55' W 089°56'1 1.1
2014-Dec-15 17:31N 29°55' W 089°57'3 3.3
2014-Dec-15 16:29N 29°57' W 090°01'3 0.1
2014-Dec-14 20:14N 29°56' W 089°58'1 1.4
2014-Dec-14 19:16N 29°55' W 089°57'0 0.0
2014-Dec-14 18:32N 29°55' W 089°57'0 0.2
2014-Dec-14 16:32N 29°55' W 089°56'0 0.0
2014-Dec-14 15:25N 29°55' W 089°56'0 0.2
2014-Dec-14 13:31N 29°55' W 089°56'0 0.0
2014-Dec-14 12:33N 29°55' W 089°56'0 0.0
2014-Dec-14 11:33N 29°55' W 089°56'0 0.1
2014-Dec-14 08:28N 29°55' W 089°56'1 0.6
2014-Dec-14 07:33N 29°55' W 089°57'2 0.4
2014-Dec-14 02:30N 29°56' W 089°59'3 0.2
2014-Dec-13 12:32N 29°55' W 089°56'  
Track history (hours):
 
Tides and Currents Weather Stations Pressure Air Temp Water Temp Dewpoint Dewpoint Depression Visibility Wind Speed Wind Dir Waves Ship Positions

Omaha

Owner: Turn services, Inc, New Orleans, LA. More information available from US FCC via Universal Licensing System and Coast Guard Vessel Documentation Center.

Last reported at 2014-Dec-23 03:24 UTC. Time now 2014-Dec-23 03:40 UTC.
Position N 29°55' W 089°56'.

Length 13 m; draft 3.5 m.

Type: Pilot. MMSI: 367102030.

Date/timePositionNaut miles runAvg speedWind from/ knotsBaromVisibWave heightAir tempDewpointWater temp
2014-Dec-23 03:24N 29°55' W 089°56'0 0.1
2014-Dec-23 01:33N 29°55' W 089°57'1 0.2
2014-Dec-22 21:07N 29°55' W 089°56'4 6.4
2014-Dec-22 20:28N 29°57' W 090°00'2 1.8
2014-Dec-22 19:21N 29°56' W 089°58'2 2.5
2014-Dec-22 18:32N 29°55' W 089°56'1 0.7
2014-Dec-22 17:03N 29°55' W 089°57'0 0.6
2014-Dec-22 16:31N 29°55' W 089°56'1 0.3
2014-Dec-22 14:19N 29°55' W 089°56'4 0.4
2014-Dec-22 02:30N 29°57' W 090°00'3 2.8
2014-Dec-22 01:28N 29°55' W 089°57'1 0.1
2014-Dec-21 15:24N 29°55' W 089°56'1 0.6
2014-Dec-21 14:21N 29°55' W 089°56'0 0.0
2014-Dec-21 13:12N 29°55' W 089°56'1 0.3
2014-Dec-21 11:26N 29°55' W 089°56'0 0.0
2014-Dec-21 10:32N 29°55' W 089°56'0 0.1
2014-Dec-21 09:23N 29°55' W 089°56'0 0.3
2014-Dec-21 08:32N 29°55' W 089°56'0 0.2
2014-Dec-21 07:20N 29°55' W 089°56'0 0.4
2014-Dec-21 06:32N 29°55' W 089°56'0 0.2
2014-Dec-21 05:18N 29°55' W 089°56'0 0.3
2014-Dec-21 04:26N 29°55' W 089°57'1 0.4
2014-Dec-21 02:33N 29°55' W 089°56'0 0.0
2014-Dec-21 01:10N 29°55' W 089°56'0 0.0
2014-Dec-20 23:11N 29°55' W 089°56'0 0.0
2014-Dec-20 22:32N 29°55' W 089°56'0 0.2
2014-Dec-20 21:27N 29°55' W 089°56'0 0.5
2014-Dec-20 20:31N 29°55' W 089°57'2 1.9
2014-Dec-20 19:30N 29°56' W 089°59'2 2.0
2014-Dec-20 18:33N 29°55' W 089°57'1 0.6
2014-Dec-20 17:11N 29°55' W 089°56'1 0.3
2014-Dec-20 15:29N 29°55' W 089°56'0 0.0
2014-Dec-20 14:30N 29°55' W 089°56'2 0.3
2014-Dec-20 07:27N 29°56' W 089°59'0 0.1
2014-Dec-20 06:32N 29°56' W 089°59'1 0.3
2014-Dec-20 04:27N 29°56' W 089°58'2 1.9
2014-Dec-20 03:33N 29°56' W 089°60'1 0.5
2014-Dec-20 01:21N 29°56' W 089°59'3 2.5
2014-Dec-20 00:16N 29°55' W 089°56'1 0.1
2014-Dec-19 11:10N 29°55' W 089°57'0 0.0
2014-Dec-18 10:26N 29°55' W 089°56'0 0.0
2014-Dec-17 21:29N 29°55' W 089°56'0 0.1
2014-Dec-17 15:13N 29°55' W 089°56'0 0.6
2014-Dec-17 14:29N 29°55' W 089°57'1 1.0
2014-Dec-17 13:29N 29°55' W 089°56'0 0.0
2014-Dec-17 12:33N 29°55' W 089°56'0 0.0
2014-Dec-17 01:17N 29°55' W 089°56'0 0.1
2014-Dec-16 23:05N 29°55' W 089°56'0 0.1
2014-Dec-16 20:27N 29°55' W 089°56'1 0.7
2014-Dec-16 19:07N 29°55' W 089°57'1 0.6
2014-Dec-16 17:18N 29°55' W 089°56'1 1.2
2014-Dec-16 16:28N 29°55' W 089°57'1 0.7
2014-Dec-16 15:30N 29°55' W 089°56'1 0.6
2014-Dec-16 14:33N 29°55' W 089°56'1 0.0
2014-Dec-15 23:11N 29°55' W 089°56'1 0.7
2014-Dec-15 22:28N 29°55' W 089°56'1 0.6
2014-Dec-15 20:33N 29°55' W 089°57'1 0.6
2014-Dec-15 19:22N 29°55' W 089°56'0 0.2
2014-Dec-15 18:20N 29°55' W 089°56'1 1.1
2014-Dec-15 17:31N 29°55' W 089°57'3 3.3
2014-Dec-15 16:29N 29°57' W 090°01'3 0.1
2014-Dec-14 20:14N 29°56' W 089°58'1 1.4
2014-Dec-14 19:16N 29°55' W 089°57'0 0.0
2014-Dec-14 18:32N 29°55' W 089°57'0 0.2
2014-Dec-14 16:32N 29°55' W 089°56'0 0.0
2014-Dec-14 15:25N 29°55' W 089°56'0 0.2
2014-Dec-14 13:31N 29°55' W 089°56'0 0.0
2014-Dec-14 12:33N 29°55' W 089°56'0 0.0
2014-Dec-14 11:33N 29°55' W 089°56'0 0.1
2014-Dec-14 08:28N 29°55' W 089°56'1 0.6
2014-Dec-14 07:33N 29°55' W 089°57'2 0.4
2014-Dec-14 02:30N 29°56' W 089°59'3 0.2
2014-Dec-13 12:32N 29°55' W 089°56'  

Dump ship's entire track history